Allport, Pennsylvania
Current Conditions -  °F | °C
As of 10:54 PM on Wednesday 26 Nov 2014 (Local Time) from KFIG Reporting Station
Overcast Overcast  
Wind Chill: 30°   Ceiling: 3200
Heat Index: 30°   Visibility: 10mi
Dew Point: 28°   Wind: 0mph
Humidity: 92%   Direction: NA
Pressure: 29.96"   Gusts: NA
Location:  40.96°N, 78.2°W
Report Text: KFIG 270354Z AUTO 00000KT 10SM OVC032 M01/M02 A2996 RMK AO2 SLP161 T10111022
Loading
Personal Weather Stations






























Interactive Weather Map New forecast layout! Learn more

10-Day Weather Forecast

Advertisements
Track Severe Weather on mobile